Time;durP1;ratioP1;P1;durP2;ratioP2;P2;SDS_P1;SDS_P2;PMS_P1;PMS_P2;Temp;Humidity;BMP_temperature;BMP_pressure;BME280_temperature;BME280_humidity;BME280_pressure;Samples;Min_cycle;Max_cycle;Signal;HPM_P1;HPM_P2
2023/12/30 00:01:03;;;;;;;;;;;19.60;61.30;;;;;;5076701;28;19947;-63
2023/12/30 00:03:28;;;;;;;;;;;19.60;61.20;;;;;;5094679;28;19928;-63
2023/12/30 00:05:54;;;;;;;;;;;19.60;61.20;;;;;;5077909;28;19942;-63
2023/12/30 00:08:19;;;;;;;;;;;19.60;61.20;;;;;;5076571;28;20283;-63
2023/12/30 00:10:45;;;;;;;;;;;19.60;61.20;;;;;;5093987;28;19924;-62
2023/12/30 00:13:10;;;;;;;;;;;19.60;61.20;;;;;;5094793;28;20947;-62
2023/12/30 00:15:35;;;;;;;;;;;19.60;61.10;;;;;;5076682;28;19928;-62
2023/12/30 00:18:01;;;;;;;;;;;19.60;61.10;;;;;;5077885;28;20352;-62
2023/12/30 00:20:26;;;;;;;;;;;19.60;61.10;;;;;;5077396;28;19924;-62
2023/12/30 00:22:52;;;;;;;;;;;19.50;61.10;;;;;;5075900;28;20003;-63
2023/12/30 00:25:17;;;;;;;;;;;19.50;61.00;;;;;;5076414;28;19935;-63
2023/12/30 00:27:43;;;;;;;;;;;19.50;61.00;;;;;;5076877;28;19963;-63
2023/12/30 00:30:10;;;;;;;;;;;19.50;61.00;;;;;;5075439;28;19924;-62
2023/12/30 00:32:36;;;;;;;;;;;19.50;61.00;;;;;;5076895;28;19993;-62
2023/12/30 00:35:01;;;;;;;;;;;19.50;61.30;;;;;;5077385;28;20317;-62
2023/12/30 00:37:27;;;;;;;;;;;19.50;61.00;;;;;;5075900;28;20402;-62
2023/12/30 00:39:53;;;;;;;;;;;19.50;61.00;;;;;;5077282;28;19936;-63
2023/12/30 00:42:19;;;;;;;;;;;19.50;61.00;;;;;;5095414;28;19981;-62
2023/12/30 00:44:44;;;;;;;;;;;19.50;60.90;;;;;;5092762;28;19920;-63
2023/12/30 00:47:11;;;;;;;;;;;19.40;60.90;;;;;;5075169;28;20371;-62
2023/12/30 00:49:36;;;;;;;;;;;19.40;60.90;;;;;;5095187;28;19928;-63
2023/12/30 00:52:02;;;;;;;;;;;19.40;60.80;;;;;;5075812;28;20362;-62
2023/12/30 00:54:27;;;;;;;;;;;19.40;60.80;;;;;;5076590;28;19924;-63
2023/12/30 00:56:52;;;;;;;;;;;19.40;60.80;;;;;;5094996;28;20015;-62
2023/12/30 00:59:18;;;;;;;;;;;19.40;60.80;;;;;;5075237;28;19924;-63
2023/12/30 01:01:43;;;;;;;;;;;19.40;60.80;;;;;;5075891;28;20015;-62
2023/12/30 01:04:09;;;;;;;;;;;19.40;60.80;;;;;;5094733;28;19924;-62
2023/12/30 01:06:34;;;;;;;;;;;19.40;60.80;;;;;;5094038;28;20020;-62
2023/12/30 01:09:00;;;;;;;;;;;19.40;60.80;;;;;;5076095;28;19924;-62
2023/12/30 01:11:26;;;;;;;;;;;19.40;60.80;;;;;;5076382;28;19924;-62
2023/12/30 01:13:51;;;;;;;;;;;19.30;60.60;;;;;;5093486;28;19925;-62
2023/12/30 01:16:17;;;;;;;;;;;19.30;60.70;;;;;;5093464;28;19995;-62
2023/12/30 01:18:42;;;;;;;;;;;19.30;60.70;;;;;;5094061;28;19985;-62
2023/12/30 01:21:08;;;;;;;;;;;19.30;60.60;;;;;;5094118;28;19931;-62
2023/12/30 01:23:33;;;;;;;;;;;19.30;60.60;;;;;;5093238;28;19935;-62
2023/12/30 01:25:59;;;;;;;;;;;19.30;60.60;;;;;;5075741;28;20015;-63
2023/12/30 01:28:24;;;;;;;;;;;19.30;60.60;;;;;;5076421;28;19973;-63
2023/12/30 01:30:51;;;;;;;;;;;19.30;60.60;;;;;;5075441;28;20558;-62
2023/12/30 01:33:16;;;;;;;;;;;19.30;60.60;;;;;;5074559;28;20391;-62
2023/12/30 01:35:42;;;;;;;;;;;19.30;60.60;;;;;;5076501;28;19931;-62
2023/12/30 01:38:07;;;;;;;;;;;19.30;60.60;;;;;;5075394;28;19933;-62
2023/12/30 01:40:33;;;;;;;;;;;19.30;60.60;;;;;;5093614;28;19928;-62
2023/12/30 01:43:02;;;;;;;;;;;19.20;60.50;;;;;;5093884;28;19924;-62
2023/12/30 01:45:28;;;;;;;;;;;19.30;60.60;;;;;;5093780;28;19924;-62
2023/12/30 01:47:54;;;;;;;;;;;19.20;60.50;;;;;;5093032;28;19924;-62
2023/12/30 01:50:19;;;;;;;;;;;19.20;60.60;;;;;;5075640;28;19925;-62
2023/12/30 01:52:46;;;;;;;;;;;19.20;60.50;;;;;;5059093;28;19925;-62
2023/12/30 01:55:11;;;;;;;;;;;19.20;60.50;;;;;;5074952;28;20261;-62
2023/12/30 01:57:37;;;;;;;;;;;19.20;60.50;;;;;;5058990;28;20015;-62
2023/12/30 02:00:04;;;;;;;;;;;19.20;60.50;;;;;;5092749;28;19963;-62
2023/12/30 02:02:29;;;;;;;;;;;19.20;60.50;;;;;;5073956;28;19928;-62
2023/12/30 02:04:55;;;;;;;;;;;19.20;60.50;;;;;;5074528;28;20338;-63
2023/12/30 02:07:20;;;;;;;;;;;19.20;60.50;;;;;;5075211;28;19950;-62
2023/12/30 02:09:46;;;;;;;;;;;19.10;60.40;;;;;;5074537;28;19928;-62
2023/12/30 02:12:11;;;;;;;;;;;19.10;60.40;;;;;;5058401;28;19928;-62
2023/12/30 02:14:37;;;;;;;;;;;19.10;60.40;;;;;;5075039;28;19989;-62
2023/12/30 02:17:02;;;;;;;;;;;19.10;60.40;;;;;;5092822;28;19969;-63
2023/12/30 02:19:28;;;;;;;;;;;19.10;60.40;;;;;;5093895;28;19928;-62
2023/12/30 02:21:53;;;;;;;;;;;19.10;60.30;;;;;;5074493;28;19939;-62
2023/12/30 02:24:22;;;;;;;;;;;19.10;60.30;;;;;;5074924;28;19932;-62
2023/12/30 02:26:47;;;;;;;;;;;19.10;60.30;;;;;;5093488;28;19927;-62
2023/12/30 02:29:13;;;;;;;;;;;19.10;60.30;;;;;;5072641;28;19924;-62
2023/12/30 02:31:45;;;;;;;;;;;19.10;60.30;;;;;;5067534;28;19924;-62
2023/12/30 02:34:15;;;;;;;;;;;19.10;60.30;;;;;;5054125;28;19924;-62
2023/12/30 02:36:40;;;;;;;;;;;19.10;60.30;;;;;;5072106;28;19924;-62
2023/12/30 02:39:06;;;;;;;;;;;19.10;60.30;;;;;;5054463;28;19995;-62
2023/12/30 02:41:31;;;;;;;;;;;19.00;60.20;;;;;;5055349;28;19931;-62
2023/12/30 02:43:57;;;;;;;;;;;19.00;60.20;;;;;;5053446;28;20437;-62
2023/12/30 02:46:23;;;;;;;;;;;19.00;60.20;;;;;;5055132;28;19924;-63
2023/12/30 02:48:48;;;;;;;;;;;19.00;60.20;;;;;;5072905;28;19925;-62
2023/12/30 02:51:15;;;;;;;;;;;19.00;60.20;;;;;;5071709;28;19951;-62
2023/12/30 02:53:40;;;;;;;;;;;19.00;60.20;;;;;;5071367;28;19947;-62
2023/12/30 02:56:06;;;;;;;;;;;19.00;60.20;;;;;;5092859;28;20388;-62
2023/12/30 02:58:32;;;;;;;;;;;19.00;60.20;;;;;;5092426;28;19924;-62
2023/12/30 03:00:57;;;;;;;;;;;19.00;60.20;;;;;;5073035;28;19924;-62
2023/12/30 03:03:23;;;;;;;;;;;19.00;60.20;;;;;;5056809;28;19928;-62
2023/12/30 03:05:48;;;;;;;;;;;19.00;60.20;;;;;;5071826;28;20008;-62
2023/12/30 03:08:13;;;;;;;;;;;19.00;60.20;;;;;;5054312;28;19924;-62
2023/12/30 03:10:39;;;;;;;;;;;18.90;60.20;;;;;;5054518;28;19932;-62
2023/12/30 03:13:04;;;;;;;;;;;19.00;60.20;;;;;;5053462;28;19924;-62
2023/12/30 03:15:30;;;;;;;;;;;18.90;60.10;;;;;;5054726;28;19925;-62
2023/12/30 03:17:55;;;;;;;;;;;18.90;60.10;;;;;;5072594;28;19921;-62
2023/12/30 03:20:21;;;;;;;;;;;18.90;60.10;;;;;;5072315;28;19932;-62
2023/12/30 03:22:46;;;;;;;;;;;18.90;60.10;;;;;;5092448;28;20442;-62
2023/12/30 03:25:12;;;;;;;;;;;18.90;60.10;;;;;;5090580;28;20017;-62
2023/12/30 03:27:37;;;;;;;;;;;18.90;60.20;;;;;;5074135;28;20380;-63
2023/12/30 03:30:03;;;;;;;;;;;18.90;60.20;;;;;;5073867;28;19924;-62
2023/12/30 03:32:28;;;;;;;;;;;18.90;60.20;;;;;;5073711;28;19931;-62
2023/12/30 03:34:54;;;;;;;;;;;18.90;60.20;;;;;;5074231;28;19950;-62
2023/12/30 03:37:19;;;;;;;;;;;18.90;60.20;;;;;;5074263;28;19927;-62
2023/12/30 03:39:45;;;;;;;;;;;18.90;60.20;;;;;;5073860;28;19924;-62
2023/12/30 03:42:10;;;;;;;;;;;18.90;60.20;;;;;;5092227;28;19977;-62
2023/12/30 03:44:36;;;;;;;;;;;18.90;60.20;;;;;;5073855;28;19932;-62
2023/12/30 03:47:01;;;;;;;;;;;18.90;60.20;;;;;;5093127;28;20287;-63
2023/12/30 03:49:27;;;;;;;;;;;18.90;60.20;;;;;;5076533;28;19936;-62
2023/12/30 03:51:52;;;;;;;;;;;18.90;60.20;;;;;;5093738;28;20895;-62
2023/12/30 03:54:18;;;;;;;;;;;18.90;60.20;;;;;;5077087;28;20366;-62
2023/12/30 03:56:43;;;;;;;;;;;18.90;60.20;;;;;;5077948;28;19970;-62
2023/12/30 03:59:09;;;;;;;;;;;18.90;60.20;;;;;;5077496;28;20384;-63
2023/12/30 04:01:34;;;;;;;;;;;18.90;60.10;;;;;;5095290;28;20347;-63
2023/12/30 04:04:00;;;;;;;;;;;18.90;60.20;;;;;;5077316;28;19928;-62
2023/12/30 04:06:25;;;;;;;;;;;18.90;60.20;;;;;;5095707;28;19993;-62
2023/12/30 04:08:51;;;;;;;;;;;18.90;60.20;;;;;;5076278;28;19924;-62
2023/12/30 04:11:16;;;;;;;;;;;18.90;60.10;;;;;;5078073;28;19928;-63
2023/12/30 04:13:42;;;;;;;;;;;18.90;60.10;;;;;;5095658;28;19931;-62
2023/12/30 04:16:08;;;;;;;;;;;19.00;60.20;;;;;;5076442;28;19920;-62
2023/12/30 04:18:33;;;;;;;;;;;19.00;60.10;;;;;;5077510;28;19931;-62
2023/12/30 04:20:59;;;;;;;;;;;19.00;60.10;;;;;;5077040;28;19931;-62
2023/12/30 04:23:24;;;;;;;;;;;19.00;60.10;;;;;;5076729;28;20024;-63
2023/12/30 04:25:49;;;;;;;;;;;19.00;60.10;;;;;;5077594;28;19924;-63
2023/12/30 04:28:15;;;;;;;;;;;19.00;60.10;;;;;;5094730;28;19950;-63
2023/12/30 04:30:40;;;;;;;;;;;19.00;60.10;;;;;;5076618;28;19924;-63
2023/12/30 04:33:06;;;;;;;;;;;19.00;60.00;;;;;;5076978;28;19974;-62
2023/12/30 04:35:31;;;;;;;;;;;19.00;60.00;;;;;;5094434;28;19975;-63
2023/12/30 04:37:57;;;;;;;;;;;19.00;59.90;;;;;;5077283;28;19978;-62
2023/12/30 04:40:23;;;;;;;;;;;19.10;60.00;;;;;;5095474;28;20383;-62
2023/12/30 04:42:48;;;;;;;;;;;19.10;59.90;;;;;;5094504;28;19924;-63
2023/12/30 04:45:14;;;;;;;;;;;19.10;60.00;;;;;;5076310;28;20023;-63
2023/12/30 04:47:39;;;;;;;;;;;19.10;59.90;;;;;;5077365;28;19928;-63
2023/12/30 04:50:05;;;;;;;;;;;19.10;59.90;;;;;;5094089;28;19924;-63
2023/12/30 04:52:31;;;;;;;;;;;19.10;59.90;;;;;;5076823;28;20299;-62
2023/12/30 04:54:56;;;;;;;;;;;19.20;59.90;;;;;;5076973;28;20026;-62
2023/12/30 04:57:21;;;;;;;;;;;19.20;59.90;;;;;;5075378;28;20368;-63
2023/12/30 04:59:47;;;;;;;;;;;19.20;59.90;;;;;;5094559;28;19932;-62
2023/12/30 05:02:12;;;;;;;;;;;19.20;59.90;;;;;;5073221;28;20018;-62
2023/12/30 05:04:40;;;;;;;;;;;19.20;59.80;;;;;;5091809;28;19932;-62
2023/12/30 05:07:06;;;;;;;;;;;19.20;60.40;;;;;;5075938;28;19972;-62
2023/12/30 05:09:33;;;;;;;;;;;19.30;59.90;;;;;;5094419;28;20022;-62
2023/12/30 05:11:59;;;;;;;;;;;19.30;59.90;;;;;;5093615;28;19931;-63
2023/12/30 05:14:24;;;;;;;;;;;19.30;59.80;;;;;;5094354;28;19928;-62
2023/12/30 05:16:50;;;;;;;;;;;19.30;59.80;;;;;;5076146;28;19924;-62
2023/12/30 05:19:15;;;;;;;;;;;19.30;59.80;;;;;;5073969;28;19924;-62
2023/12/30 05:21:41;;;;;;;;;;;19.30;59.80;;;;;;5110122;28;19924;-62
2023/12/30 05:24:07;;;;;;;;;;;19.30;59.80;;;;;;5075331;28;19932;-62
2023/12/30 05:26:32;;;;;;;;;;;19.40;59.80;;;;;;5093620;28;19969;-62
2023/12/30 05:28:58;;;;;;;;;;;19.40;59.80;;;;;;5109456;28;20376;-62
2023/12/30 05:31:23;;;;;;;;;;;19.40;59.80;;;;;;5076318;28;19970;-62
2023/12/30 05:33:49;;;;;;;;;;;19.40;59.80;;;;;;5091936;28;19924;-62
2023/12/30 05:36:14;;;;;;;;;;;19.40;59.70;;;;;;5092879;28;19923;-62
2023/12/30 05:38:40;;;;;;;;;;;19.40;59.70;;;;;;5075718;28;20406;-62
2023/12/30 05:41:05;;;;;;;;;;;19.40;59.70;;;;;;5093121;28;19931;-63
2023/12/30 05:43:31;;;;;;;;;;;19.50;59.70;;;;;;5076224;28;19923;-62
2023/12/30 05:45:56;;;;;;;;;;;19.50;59.70;;;;;;5074819;28;20399;-63
2023/12/30 05:48:22;;;;;;;;;;;19.50;59.70;;;;;;5075993;28;20047;-62
2023/12/30 05:50:47;;;;;;;;;;;19.50;59.70;;;;;;5094090;28;20368;-63
2023/12/30 05:53:13;;;;;;;;;;;19.50;59.70;;;;;;5093078;28;19924;-62
2023/12/30 05:55:38;;;;;;;;;;;19.50;59.60;;;;;;5094133;28;20444;-63
2023/12/30 05:58:04;;;;;;;;;;;19.50;59.60;;;;;;5075002;28;19931;-62
2023/12/30 06:00:29;;;;;;;;;;;19.50;59.60;;;;;;5092716;28;19924;-62
2023/12/30 06:02:55;;;;;;;;;;;19.50;59.60;;;;;;5074180;28;19931;-62
2023/12/30 06:05:20;;;;;;;;;;;19.50;59.50;;;;;;5075414;28;20413;-62
2023/12/30 06:07:46;;;;;;;;;;;19.50;59.50;;;;;;5074859;28;19925;-62
2023/12/30 06:10:12;;;;;;;;;;;19.60;59.60;;;;;;5075047;28;20329;-62
2023/12/30 06:12:37;;;;;;;;;;;19.60;59.60;;;;;;5076069;28;19955;-63
2023/12/30 06:15:03;;;;;;;;;;;19.60;59.60;;;;;;5074308;28;19924;-62
2023/12/30 06:17:29;;;;;;;;;;;19.60;59.60;;;;;;5093448;28;19963;-62
2023/12/30 06:19:55;;;;;;;;;;;19.60;59.60;;;;;;5075337;28;19970;-62
2023/12/30 06:22:21;;;;;;;;;;;19.60;59.60;;;;;;5073886;28;20311;-62
2023/12/30 06:24:46;;;;;;;;;;;19.60;59.50;;;;;;5075295;28;19993;-62
2023/12/30 06:27:12;;;;;;;;;;;19.60;59.50;;;;;;5093032;28;19920;-63
2023/12/30 06:29:37;;;;;;;;;;;19.60;59.50;;;;;;5074042;28;19934;-62
2023/12/30 06:32:03;;;;;;;;;;;19.60;59.50;;;;;;5075035;28;19924;-62
2023/12/30 06:34:28;;;;;;;;;;;19.60;59.50;;;;;;5108952;28;19928;-62
2023/12/30 06:36:54;;;;;;;;;;;19.60;59.50;;;;;;5091849;28;19986;-62
2023/12/30 06:39:20;;;;;;;;;;;19.60;59.50;;;;;;5075101;28;20391;-63
2023/12/30 06:41:46;;;;;;;;;;;19.60;59.50;;;;;;5093241;28;20433;-63
2023/12/30 06:44:11;;;;;;;;;;;19.60;59.50;;;;;;5073385;28;19978;-62
2023/12/30 06:46:37;;;;;;;;;;;19.70;59.50;;;;;;5092724;28;19975;-63
2023/12/30 06:49:02;;;;;;;;;;;19.70;59.50;;;;;;5073072;28;20050;-62
2023/12/30 06:51:28;;;;;;;;;;;19.60;59.40;;;;;;5074253;28;19924;-62
2023/12/30 06:53:53;;;;;;;;;;;19.70;59.40;;;;;;5074432;28;19925;-63
2023/12/30 06:56:19;;;;;;;;;;;19.70;59.40;;;;;;5091719;28;19920;-62
2023/12/30 06:58:45;;;;;;;;;;;19.70;59.40;;;;;;5092710;28;19992;-63
2023/12/30 07:01:11;;;;;;;;;;;19.70;59.40;;;;;;5092265;28;20069;-62
2023/12/30 07:03:36;;;;;;;;;;;19.70;59.40;;;;;;5074251;28;20399;-62
2023/12/30 07:06:02;;;;;;;;;;;19.70;59.40;;;;;;5074099;28;20021;-62
2023/12/30 07:08:27;;;;;;;;;;;19.70;59.40;;;;;;5092439;28;19928;-62
2023/12/30 07:10:53;;;;;;;;;;;19.70;59.40;;;;;;5073266;28;19925;-62
2023/12/30 07:13:18;;;;;;;;;;;19.70;59.40;;;;;;5074336;28;19930;-63
2023/12/30 07:15:45;;;;;;;;;;;19.70;59.40;;;;;;5074123;28;19931;-62
2023/12/30 07:18:11;;;;;;;;;;;19.70;59.40;;;;;;5091656;28;19938;-62
2023/12/30 07:20:36;;;;;;;;;;;19.70;59.30;;;;;;5074246;28;19928;-62
2023/12/30 07:23:04;;;;;;;;;;;19.70;59.40;;;;;;5077365;28;19947;-62
2023/12/30 07:25:29;;;;;;;;;;;19.70;59.30;;;;;;5076175;28;20322;-63
2023/12/30 07:27:55;;;;;;;;;;;19.70;59.30;;;;;;5077291;28;19966;-63
2023/12/30 07:30:20;;;;;;;;;;;19.70;59.30;;;;;;5077084;28;19924;-63
2023/12/30 07:32:46;;;;;;;;;;;19.70;59.20;;;;;;5077626;28;19930;-62
2023/12/30 07:35:11;;;;;;;;;;;19.70;59.20;;;;;;5077627;28;19928;-63
2023/12/30 07:37:37;;;;;;;;;;;19.70;59.20;;;;;;5076195;28;19928;-63
2023/12/30 07:40:03;;;;;;;;;;;19.70;59.20;;;;;;5075165;28;19925;-63
2023/12/30 07:42:29;;;;;;;;;;;19.70;59.20;;;;;;5076320;28;19948;-62
2023/12/30 07:44:54;;;;;;;;;;;19.70;59.20;;;;;;5075462;28;19924;-63
2023/12/30 07:47:19;;;;;;;;;;;19.80;59.30;;;;;;5074241;28;20032;-63
2023/12/30 07:49:46;;;;;;;;;;;19.70;59.20;;;;;;5075317;28;19924;-63
2023/12/30 07:52:11;;;;;;;;;;;19.80;59.20;;;;;;5057121;28;19929;-62
2023/12/30 07:54:37;;;;;;;;;;;19.80;59.20;;;;;;5075016;28;19928;-63
2023/12/30 07:57:03;;;;;;;;;;;19.80;59.20;;;;;;5075684;28;19924;-63
2023/12/30 07:59:28;;;;;;;;;;;19.80;59.20;;;;;;5074642;28;20429;-67
2023/12/30 08:01:56;;;;;;;;;;;19.80;59.20;;;;;;5057179;28;19999;-62
2023/12/30 08:04:22;;;;;;;;;;;19.80;59.20;;;;;;5058103;28;20009;-63
2023/12/30 08:06:48;;;;;;;;;;;19.70;58.90;;;;;;5075039;28;20518;-62
2023/12/30 08:09:13;;;;;;;;;;;19.80;59.00;;;;;;5056994;28;20003;-62
2023/12/30 08:11:39;;;;;;;;;;;19.70;59.00;;;;;;5091477;28;19931;-62
2023/12/30 08:14:05;;;;;;;;;;;19.80;59.30;;;;;;5056573;28;20296;-63
2023/12/30 08:16:30;;;;;;;;;;;19.80;59.30;;;;;;5057576;28;19920;-62
2023/12/30 08:18:56;;;;;;;;;;;19.80;59.40;;;;;;5090854;28;20399;-62
2023/12/30 08:21:21;;;;;;;;;;;19.80;59.50;;;;;;5074906;28;19970;-64
2023/12/30 08:23:47;;;;;;;;;;;19.80;59.60;;;;;;5071061;28;20374;-62
2023/12/30 08:26:12;;;;;;;;;;;19.80;59.60;;;;;;5095275;28;19924;-64
2023/12/30 08:28:38;;;;;;;;;;;19.80;59.80;;;;;;5077094;28;20348;-65
2023/12/30 08:31:03;;;;;;;;;;;19.80;59.80;;;;;;5075876;28;19932;-65
2023/12/30 08:33:29;;;;;;;;;;;19.80;60.00;;;;;;5077644;28;20287;-62
2023/12/30 08:35:54;;;;;;;;;;;19.80;59.90;;;;;;5094776;28;20010;-62
2023/12/30 08:38:20;;;;;;;;;;;19.80;59.80;;;;;;5076609;28;19924;-63
2023/12/30 08:40:45;;;;;;;;;;;19.80;60.00;;;;;;5092913;28;19932;-62
2023/12/30 08:43:11;;;;;;;;;;;19.80;60.00;;;;;;5055812;28;19960;-62
2023/12/30 08:45:37;;;;;;;;;;;19.90;60.10;;;;;;5057018;28;19932;-61
2023/12/30 08:48:03;;;;;;;;;;;19.90;60.10;;;;;;5074772;28;19932;-61
2023/12/30 08:50:30;;;;;;;;;;;19.90;60.00;;;;;;5056226;28;19970;-61
2023/12/30 08:52:55;;;;;;;;;;;19.90;60.00;;;;;;5056321;28;19931;-62
2023/12/30 08:55:21;;;;;;;;;;;19.90;60.00;;;;;;5057322;28;19925;-62
2023/12/30 08:57:46;;;;;;;;;;;19.90;60.10;;;;;;5070774;28;19924;-61
2023/12/30 09:00:12;;;;;;;;;;;19.90;60.10;;;;;;5076489;28;19978;-62
2023/12/30 09:02:38;;;;;;;;;;;20.00;60.20;;;;;;5076637;28;19928;-62
2023/12/30 09:05:04;;;;;;;;;;;20.00;60.20;;;;;;5093960;28;19993;-61
2023/12/30 09:07:30;;;;;;;;;;;20.00;60.20;;;;;;5081753;28;19921;-62
2023/12/30 09:09:56;;;;;;;;;;;20.00;60.20;;;;;;5062113;28;19924;-62
2023/12/30 09:12:22;;;;;;;;;;;20.00;60.20;;;;;;5094948;28;19924;-62
2023/12/30 09:14:47;;;;;;;;;;;20.00;60.20;;;;;;5110283;28;20412;-62
2023/12/30 09:17:13;;;;;;;;;;;20.00;60.20;;;;;;5093122;28;19931;-62
2023/12/30 09:19:38;;;;;;;;;;;20.00;60.10;;;;;;5076897;28;19924;-62
2023/12/30 09:22:04;;;;;;;;;;;20.10;60.30;;;;;;5093898;28;20031;-62
2023/12/30 09:24:29;;;;;;;;;;;20.00;60.20;;;;;;5076096;28;19924;-62
2023/12/30 09:26:55;;;;;;;;;;;20.10;60.30;;;;;;5094452;28;19924;-62
2023/12/30 09:29:20;;;;;;;;;;;20.10;60.30;;;;;;5076175;28;19924;-63
2023/12/30 09:31:46;;;;;;;;;;;20.10;60.30;;;;;;5093511;28;19931;-63
2023/12/30 09:34:11;;;;;;;;;;;20.10;60.30;;;;;;5074920;28;19928;-63
2023/12/30 09:36:37;;;;;;;;;;;20.10;60.30;;;;;;5076111;28;19920;-63
2023/12/30 09:39:04;;;;;;;;;;;20.10;60.30;;;;;;5092395;28;19930;-63
2023/12/30 09:41:29;;;;;;;;;;;20.10;60.30;;;;;;5075621;28;20001;-63
2023/12/30 09:43:55;;;;;;;;;;;20.10;60.30;;;;;;5058316;28;19978;-63
2023/12/30 09:46:20;;;;;;;;;;;20.10;60.30;;;;;;5058596;28;19924;-64
2023/12/30 09:48:46;;;;;;;;;;;20.10;60.30;;;;;;5075894;28;20020;-64
2023/12/30 09:51:12;;;;;;;;;;;20.10;60.30;;;;;;5057838;28;19928;-63
2023/12/30 09:53:38;;;;;;;;;;;20.10;60.30;;;;;;5074172;28;19934;-63
2023/12/30 09:56:03;;;;;;;;;;;20.10;60.30;;;;;;5075788;28;19924;-63
2023/12/30 09:58:29;;;;;;;;;;;20.10;60.40;;;;;;5074823;28;20273;-63
2023/12/30 10:00:54;;;;;;;;;;;20.10;60.30;;;;;;5074602;28;19930;-63
2023/12/30 10:03:21;;;;;;;;;;;20.10;60.30;;;;;;5093502;28;20341;-62
2023/12/30 10:05:47;;;;;;;;;;;20.10;60.40;;;;;;5074760;28;19931;-63
2023/12/30 10:08:12;;;;;;;;;;;20.10;60.30;;;;;;5091947;28;20084;-63
2023/12/30 10:10:48;;;;;;;;;;;20.10;60.10;;;;;;5074584;28;19932;-63
2023/12/30 10:13:16;;;;;;;;;;;20.10;60.20;;;;;;5074442;28;20428;-63
2023/12/30 10:15:42;;;;;;;;;;;20.10;60.10;;;;;;5093701;28;19924;-62
2023/12/30 10:18:07;;;;;;;;;;;20.10;60.10;;;;;;5073920;28;19977;-62
2023/12/30 10:20:33;;;;;;;;;;;20.10;60.10;;;;;;5075155;28;19920;-62
2023/12/30 10:23:00;;;;;;;;;;;20.10;60.10;;;;;;5084281;28;20383;-61
2023/12/30 10:25:25;;;;;;;;;;;20.00;60.10;;;;;;5077648;28;20383;-62
2023/12/30 10:27:51;;;;;;;;;;;20.00;60.10;;;;;;5078992;28;19948;-61
2023/12/30 10:30:19;;;;;;;;;;;20.00;60.10;;;;;;5085319;28;19923;-61
2023/12/30 10:32:46;;;;;;;;;;;20.00;60.10;;;;;;5102385;28;19931;-61
2023/12/30 10:35:12;;;;;;;;;;;20.00;60.10;;;;;;5083086;28;20028;-61
2023/12/30 10:37:37;;;;;;;;;;;20.00;60.10;;;;;;5074564;28;19924;-60
2023/12/30 10:40:03;;;;;;;;;;;20.00;60.40;;;;;;5083754;28;20015;-63
2023/12/30 10:42:28;;;;;;;;;;;20.00;60.50;;;;;;5057444;28;20292;-62
2023/12/30 10:44:54;;;;;;;;;;;20.00;60.50;;;;;;5092378;28;19978;-62
2023/12/30 10:47:19;;;;;;;;;;;20.00;60.50;;;;;;5074321;28;20291;-62
2023/12/30 10:49:48;;;;;;;;;;;19.90;60.50;;;;;;5057617;28;19923;-62
2023/12/30 10:52:13;;;;;;;;;;;20.00;60.60;;;;;;5057777;28;20023;-61
2023/12/30 10:54:40;;;;;;;;;;;19.90;60.60;;;;;;5074449;28;20018;-62
2023/12/30 10:57:06;;;;;;;;;;;19.90;60.60;;;;;;5074324;28;20011;-61
2023/12/30 10:59:31;;;;;;;;;;;19.90;60.60;;;;;;5074217;28;20344;-62
2023/12/30 11:01:57;;;;;;;;;;;19.90;60.70;;;;;;5074880;28;19932;-63
2023/12/30 11:04:25;;;;;;;;;;;19.90;60.70;;;;;;5056128;28;19924;-64
2023/12/30 11:06:55;;;;;;;;;;;19.90;60.80;;;;;;5091355;28;19924;-63
2023/12/30 11:09:22;;;;;;;;;;;19.90;60.80;;;;;;5092647;28;19924;-63
2023/12/30 11:11:48;;;;;;;;;;;19.90;60.80;;;;;;5074761;28;20288;-63
2023/12/30 11:14:14;;;;;;;;;;;19.90;60.80;;;;;;5073638;28;19924;-62
2023/12/30 11:16:40;;;;;;;;;;;19.90;60.80;;;;;;5072776;28;19965;-62
2023/12/30 11:19:05;;;;;;;;;;;19.90;60.90;;;;;;5074738;28;19924;-62
2023/12/30 11:21:51;;;;;;;;;;;19.90;60.80;;;;;;5092878;28;19978;-63
2023/12/30 11:24:18;;;;;;;;;;;19.90;60.70;;;;;;5073211;28;20291;-62
2023/12/30 11:26:44;;;;;;;;;;;19.90;60.70;;;;;;5074897;28;19924;-64
2023/12/30 11:29:10;;;;;;;;;;;19.90;60.90;;;;;;5074786;28;19975;-64
2023/12/30 11:31:36;;;;;;;;;;;19.90;60.90;;;;;;5074282;28;20015;-63
2023/12/30 11:34:02;;;;;;;;;;;19.90;60.90;;;;;;5074574;28;20002;-63
2023/12/30 11:36:27;;;;;;;;;;;19.90;60.90;;;;;;5073642;28;19928;-63
2023/12/30 11:38:56;;;;;;;;;;;19.90;60.90;;;;;;5071408;28;20340;-63
2023/12/30 11:41:22;;;;;;;;;;;19.90;60.90;;;;;;5054640;28;19925;-64
2023/12/30 11:43:48;;;;;;;;;;;19.80;60.90;;;;;;5068418;28;19924;-64
2023/12/30 11:46:13;;;;;;;;;;;19.80;60.90;;;;;;5091482;28;19924;-63
2023/12/30 11:48:42;;;;;;;;;;;19.80;60.90;;;;;;5073710;28;19928;-64
2023/12/30 11:51:08;;;;;;;;;;;19.80;60.90;;;;;;5074276;28;19928;-64
2023/12/30 11:53:34;;;;;;;;;;;19.80;60.80;;;;;;5091860;28;19925;-64
2023/12/30 11:56:01;;;;;;;;;;;19.80;60.90;;;;;;5091413;28;19931;-63
2023/12/30 11:58:28;;;;;;;;;;;19.80;60.90;;;;;;5091697;28;20015;-62
2023/12/30 12:00:53;;;;;;;;;;;19.80;61.10;;;;;;5072890;28;20037;-62
2023/12/30 12:03:19;;;;;;;;;;;19.80;60.90;;;;;;5074773;28;19979;-62
2023/12/30 12:05:44;;;;;;;;;;;19.80;60.90;;;;;;5074453;28;20265;-62
2023/12/30 12:08:10;;;;;;;;;;;19.80;60.90;;;;;;5076427;28;20017;-62
2023/12/30 12:10:36;;;;;;;;;;;19.80;60.80;;;;;;5077299;28;20399;-62
2023/12/30 12:13:03;;;;;;;;;;;19.80;60.90;;;;;;5094938;28;19928;-62
2023/12/30 12:15:28;;;;;;;;;;;19.80;60.80;;;;;;5078190;28;20291;-62
2023/12/30 12:17:55;;;;;;;;;;;19.80;60.90;;;;;;5077502;28;19969;-62
2023/12/30 12:20:21;;;;;;;;;;;19.80;60.90;;;;;;5077045;28;19931;-62
2023/12/30 12:22:52;;;;;;;;;;;19.80;60.90;;;;;;5077439;28;19924;-73
2023/12/30 12:25:19;;;;;;;;;;;19.80;60.80;;;;;;5076944;28;20397;-65
2023/12/30 12:27:44;;;;;;;;;;;19.80;60.90;;;;;;5060405;28;20349;-64
2023/12/30 12:30:10;;;;;;;;;;;19.80;60.90;;;;;;5076284;28;19924;-64
2023/12/30 12:32:35;;;;;;;;;;;19.80;60.90;;;;;;5070162;28;19925;-65
2023/12/30 12:35:01;;;;;;;;;;;19.80;60.90;;;;;;5056550;28;19969;-64
2023/12/30 12:37:26;;;;;;;;;;;19.80;60.90;;;;;;5074238;28;20368;-64
2023/12/30 12:39:52;;;;;;;;;;;19.80;61.00;;;;;;5077332;28;19920;-65
2023/12/30 12:42:18;;;;;;;;;;;19.80;61.00;;;;;;5082145;28;19932;-65
2023/12/30 12:44:43;;;;;;;;;;;19.80;61.00;;;;;;5057609;28;19931;-65
2023/12/30 12:47:09;;;;;;;;;;;19.80;61.00;;;;;;5085886;28;19924;-65
2023/12/30 12:49:34;;;;;;;;;;;19.80;61.00;;;;;;5076528;28;19932;-65
2023/12/30 12:52:00;;;;;;;;;;;19.80;61.00;;;;;;5076682;28;19982;-65
2023/12/30 12:54:26;;;;;;;;;;;19.80;61.00;;;;;;5076974;28;19924;-63
2023/12/30 12:56:51;;;;;;;;;;;19.80;61.00;;;;;;5076702;28;19924;-63
2023/12/30 12:59:17;;;;;;;;;;;19.80;61.00;;;;;;5095220;28;19920;-63
2023/12/30 13:01:46;;;;;;;;;;;19.80;60.90;;;;;;5095081;28;19931;-62
2023/12/30 13:04:13;;;;;;;;;;;19.80;60.90;;;;;;5093436;28;19967;-62
2023/12/30 13:06:39;;;;;;;;;;;19.90;60.90;;;;;;5078692;28;19935;-62
2023/12/30 13:09:24;;;;;;;;;;;19.80;60.80;;;;;;5074950;28;20371;-63
2023/12/30 13:11:49;;;;;;;;;;;19.90;60.90;;;;;;5076921;28;19924;-63
2023/12/30 13:14:19;;;;;;;;;;;19.90;60.90;;;;;;5076675;28;20332;-62
2023/12/30 13:16:45;;;;;;;;;;;19.90;60.90;;;;;;5074453;28;19927;-63
2023/12/30 13:19:11;;;;;;;;;;;19.90;60.90;;;;;;5093537;28;20394;-62
2023/12/30 13:21:37;;;;;;;;;;;19.90;60.90;;;;;;5094760;28;19963;-67
2023/12/30 13:24:04;;;;;;;;;;;19.90;60.90;;;;;;5075356;28;20406;-66
2023/12/30 13:26:30;;;;;;;;;;;20.00;61.00;;;;;;5076648;28;19978;-65
2023/12/30 13:28:56;;;;;;;;;;;19.90;61.20;;;;;;5076306;28;20356;-67
2023/12/30 13:31:24;;;;;;;;;;;20.00;61.30;;;;;;5093917;28;20061;-66
2023/12/30 13:33:51;;;;;;;;;;;20.00;61.20;;;;;;5094575;28;19982;-66
2023/12/30 13:36:32;;;;;;;;;;;20.00;61.20;;;;;;5111011;27;19958;-67
2023/12/30 13:39:06;;;;;;;;;;;20.10;61.20;;;;;;5071241;28;19931;-67
2023/12/30 13:41:39;;;;;;;;;;;20.10;61.20;;;;;;5090240;28;20376;-71
2023/12/30 13:44:05;;;;;;;;;;;20.10;61.10;;;;;;5090259;28;19924;-67
2023/12/30 13:51:35;;;;;;;;;;;20.20;61.20;;;;;;5071865;28;19920;-69
2023/12/30 13:54:02;;;;;;;;;;;20.20;61.20;;;;;;5084737;28;19930;-71
2023/12/30 13:56:27;;;;;;;;;;;20.20;61.10;;;;;;5075663;28;19930;-72
2023/12/30 13:58:56;;;;;;;;;;;20.20;61.10;;;;;;5089545;28;20019;-68
2023/12/30 14:01:23;;;;;;;;;;;20.20;61.00;;;;;;5074863;28;19932;-67
2023/12/30 14:03:50;;;;;;;;;;;20.20;60.50;;;;;;5079913;28;19967;-69
2023/12/30 14:06:19;;;;;;;;;;;20.20;60.60;;;;;;5080414;28;19928;-68
2023/12/30 14:08:45;;;;;;;;;;;20.20;60.60;;;;;;5087653;28;19924;-68
2023/12/30 14:11:57;;;;;;;;;;;20.20;60.60;;;;;;5081952;28;20288;-68
2023/12/30 14:13:59;;;;;;;;;;;20.20;60.70;;;;;;5072068;28;19924;-68